Time;durP1;ratioP1;P1;durP2;ratioP2;P2;SDS_P1;SDS_P2;PMS_P1;PMS_P2;Temp;Humidity;BMP_temperature;BMP_pressure;BME280_temperature;BME280_humidity;BME280_pressure;Samples;Min_cycle;Max_cycle;Signal;HPM_P1;HPM_P2
2021/03/09 00:02:42;;;;;;;70.37;25.50;;;;;;;-4.12;100.00;99596.75;4477143;79;86606;-84
2021/03/09 00:08:46;;;;;;;57.48;22.80;;;;;;;-4.23;100.00;99602.02;4423145;80;44115;-83
2021/03/09 00:14:48;;;;;;;66.90;24.67;;;;;;;-4.21;100.00;99606.20;4414825;79;43777;-82
2021/03/09 00:20:52;;;;;;;65.92;25.25;;;;;;;-4.24;100.00;99606.92;4400734;80;43767;-82
2021/03/09 00:26:55;;;;;;;69.00;24.87;;;;;;;-4.26;100.00;99605.72;4400571;80;43727;-84
2021/03/09 00:32:59;;;;;;;66.60;24.47;;;;;;;-4.39;100.00;99600.59;4394723;80;44060;-83
2021/03/09 00:39:02;;;;;;;71.40;25.57;;;;;;;-4.46;100.00;99595.95;4412412;80;44000;-83
2021/03/09 00:45:05;;;;;;;66.37;24.65;;;;;;;-4.50;100.00;99603.22;4417709;80;43807;-82
2021/03/09 00:51:10;;;;;;;;;;;;;;;-4.58;100.00;99606.45;4384641;80;28576;-83
2021/03/09 00:57:12;;;;;;;64.87;23.80;;;;;;;-4.63;100.00;99605.99;4415615;80;43757;-82
2021/03/09 01:03:14;;;;;;;59.80;23.90;;;;;;;-4.65;100.00;99606.09;4377025;80;44096;-82
2021/03/09 01:09:16;;;;;;;65.05;25.05;;;;;;;-4.72;100.00;99598.83;4379151;79;43763;-83
2021/03/09 01:15:18;;;;;;;58.20;24.47;;;;;;;-4.68;100.00;99603.72;4378499;80;44114;-84
2021/03/09 01:21:20;;;;;;;61.55;23.50;;;;;;;-4.90;100.00;99592.23;4368313;80;44451;-83
2021/03/09 01:27:23;;;;;;;55.88;23.25;;;;;;;-5.02;100.00;99595.80;4353886;80;44108;-84
2021/03/09 01:33:25;;;;;;;62.33;23.18;;;;;;;-5.04;100.00;99588.53;4392027;80;44037;-83
2021/03/09 01:39:27;;;;;;;63.23;23.52;;;;;;;-5.10;100.00;99588.52;4379270;80;43710;-83
2021/03/09 01:45:29;;;;;;;59.58;23.15;;;;;;;-5.23;100.00;99593.03;4376259;80;44179;-80
2021/03/09 01:51:31;;;;;;;58.05;22.65;;;;;;;-5.20;100.00;99587.08;4377003;80;44099;-82
2021/03/09 01:57:35;;;;;;;59.08;22.37;;;;;;;-5.23;100.00;99589.09;4366077;80;44391;-80
2021/03/09 02:03:37;;;;;;;63.83;24.02;;;;;;;-5.29;100.00;99589.55;4355676;80;43767;-79
2021/03/09 02:09:40;;;;;;;64.05;23.27;;;;;;;-5.25;100.00;99589.69;4356229;80;44120;-83
2021/03/09 02:16:23;;;;;;;65.52;23.32;;;;;;;-5.18;100.00;99581.24;4386155;80;43773;-83
2021/03/09 02:23:19;;;;;;;66.47;23.98;;;;;;;-5.27;100.00;99586.33;4379598;80;43768;-83
2021/03/09 02:29:53;;;;;;;61.13;23.52;;;;;;;-5.41;100.00;99579.52;4361070;80;44272;-82
2021/03/09 02:36:01;;;;;;;63.13;24.63;;;;;;;-5.47;100.00;99582.09;4367330;80;43737;-81
2021/03/09 02:42:06;;;;;;;67.03;23.50;;;;;;;-5.57;100.00;99572.78;4366588;80;43743;-82
2021/03/09 02:48:09;;;;;;;64.03;24.53;;;;;;;-5.69;100.00;99581.06;4342675;80;28565;-82
2021/03/09 02:54:15;;;;;;;63.13;22.35;;;;;;;-5.71;100.00;99580.84;4376000;80;44005;-83
2021/03/09 03:00:19;;;;;;;54.27;20.17;;;;;;;-5.77;100.00;99580.33;4391954;80;28619;-83
2021/03/09 03:06:23;;;;;;;54.15;21.77;;;;;;;-5.61;100.00;99583.15;4430389;80;44127;-83
2021/03/09 03:12:28;;;;;;;59.05;22.98;;;;;;;-5.63;100.00;99587.64;4427069;80;28588;-82
2021/03/09 03:18:34;;;;;;;58.80;23.47;;;;;;;-5.70;100.00;99578.58;4438310;80;44134;-82
2021/03/09 03:24:37;;;;;;;57.10;22.02;;;;;;;-5.76;100.00;99585.92;4441771;80;44117;-81
2021/03/09 03:30:39;;;;;;;61.40;22.37;;;;;;;-5.79;100.00;99585.31;4432342;79;44099;-81
2021/03/09 03:36:41;;;;;;;61.85;22.13;;;;;;;-5.85;100.00;99581.85;4445980;79;44284;-81
2021/03/09 03:42:46;;;;;;;59.65;21.85;;;;;;;-5.86;100.00;99592.78;4435155;80;44420;-80
2021/03/09 03:48:48;;;;;;;58.90;21.50;;;;;;;-5.83;100.00;99602.21;4457751;80;28544;-80
2021/03/09 03:55:25;;;;;;;54.15;21.42;;;;;;;-5.66;100.00;99604.44;4448711;80;44126;-81
2021/03/09 04:01:29;;;;;;;54.90;20.02;;;;;;;-5.88;100.00;99603.39;4289954;81;44090;-83
2021/03/09 04:07:32;;;;;;;;;;;;;;;-5.88;100.00;99597.30;4330511;81;28590;-83
2021/03/09 04:13:39;;;;;;;51.42;19.98;;;;;;;-6.07;100.00;99602.59;4263885;83;44004;-82
2021/03/09 04:19:43;;;;;;;49.20;19.17;;;;;;;-5.97;100.00;99608.44;4334047;81;43730;-82
2021/03/09 04:25:48;;;;;;;57.40;20.27;;;;;;;-6.07;100.00;99600.45;4259832;83;44137;-82
2021/03/09 04:31:52;;;;;;;52.05;19.90;;;;;;;-5.78;100.00;99596.14;4244497;83;44062;-82
2021/03/09 04:37:56;;;;;;;53.43;20.20;;;;;;;-5.95;100.00;99602.61;4264550;82;28578;-83
2021/03/09 04:43:59;;;;;;;51.25;18.45;;;;;;;-6.19;100.00;99602.16;4279734;82;44007;-83
2021/03/09 04:50:04;;;;;;;54.55;19.62;;;;;;;-6.08;100.00;99610.08;4252467;83;44115;-82
2021/03/09 04:56:08;;;;;;;53.40;18.45;;;;;;;-6.06;100.00;99595.58;4243789;83;44129;-79
2021/03/09 05:02:10;;;;;;;46.48;17.48;;;;;;;-6.05;100.00;99602.00;4245941;82;43752;-81
2021/03/09 05:08:13;;;;;;;43.30;17.55;;;;;;;-6.20;100.00;99601.80;4241303;82;43669;-82
2021/03/09 05:14:15;;;;;;;44.63;17.48;;;;;;;-6.30;100.00;99604.22;4271104;82;43738;-84
2021/03/09 05:20:17;;;;;;;43.10;16.85;;;;;;;-6.13;100.00;99611.35;4278006;82;44499;-83
2021/03/09 05:26:19;;;;;;;45.58;18.00;;;;;;;-5.95;100.00;99617.87;4285703;82;43798;-82
2021/03/09 05:32:21;;;;;;;44.05;17.70;;;;;;;-5.99;100.00;99620.33;4312435;81;44129;-81
2021/03/09 05:38:23;;;;;;;45.63;18.37;;;;;;;-5.96;100.00;99615.34;4279944;82;43792;-81
2021/03/09 05:44:25;;;;;;;48.20;18.02;;;;;;;-5.89;100.00;99611.34;4307018;82;43790;-81
2021/03/09 05:50:28;;;;;;;48.17;17.50;;;;;;;-5.70;100.00;99612.15;4285335;82;43756;-82
2021/03/09 05:56:30;;;;;;;49.90;18.55;;;;;;;-5.37;100.00;99616.34;4270403;82;43798;-82
2021/03/09 06:02:34;;;;;;;44.88;18.65;;;;;;;-5.24;100.00;99618.39;4269281;82;43758;-79
2021/03/09 06:08:37;;;;;;;;;;;;;;;-4.90;100.00;99617.15;4301566;82;28593;-82
2021/03/09 06:14:45;;;;;;;39.75;16.90;;;;;;;-4.72;100.00;99625.06;4295788;82;44452;-82
2021/03/09 06:20:47;;;;;;;40.08;17.82;;;;;;;-4.30;100.00;99619.20;4288082;82;44450;-84
2021/03/09 06:26:49;;;;;;;45.33;18.10;;;;;;;-3.93;100.00;99631.56;4279151;82;43831;-84
2021/03/09 06:32:52;;;;;;;42.40;16.97;;;;;;;-3.60;100.00;99640.80;4275158;82;44425;-83
2021/03/09 06:38:55;;;;;;;44.65;17.73;;;;;;;-3.32;100.00;99649.54;4264057;82;43732;-82
2021/03/09 06:45:05;;;;;;;36.83;15.80;;;;;;;-3.10;100.00;99654.69;4282446;82;44512;-82
2021/03/09 06:51:09;;;;;;;41.13;16.73;;;;;;;-3.11;100.00;99658.78;4319021;82;44528;-86
2021/03/09 06:57:12;;;;;;;37.42;15.30;;;;;;;-2.91;100.00;99663.69;4290870;81;44493;-85
2021/03/09 07:03:34;;;;;;;40.35;16.35;;;;;;;-2.75;100.00;99665.86;4349655;81;44463;-86
2021/03/09 07:09:53;;;;;;;43.33;18.40;;;;;;;-2.51;100.00;99666.05;4279123;82;43650;-84
2021/03/09 07:16:01;;;;;;;;;;;;;;;-2.41;100.00;99670.07;4271199;82;28589;-86
2021/03/09 07:22:04;;;;;;;39.20;16.15;;;;;;;-2.44;100.00;99672.48;4256959;82;20264;-87
2021/03/09 07:28:18;;;;;;;39.70;15.58;;;;;;;-2.35;100.00;99671.34;4349008;82;28570;-86
2021/03/09 07:34:25;;;;;;;34.33;14.33;;;;;;;-2.21;100.00;99674.92;4288664;82;44093;-86
2021/03/09 07:40:34;;;;;;;39.75;15.65;;;;;;;-2.37;100.00;99677.23;4294129;82;44424;-86
2021/03/09 07:46:37;;;;;;;36.95;15.03;;;;;;;-2.23;100.00;99680.81;4287708;82;44456;-87
2021/03/09 07:52:39;;;;;;;40.48;15.32;;;;;;;-2.18;100.00;99677.78;4294444;82;44485;-87
2021/03/09 07:58:42;;;;;;;41.63;15.03;;;;;;;-2.01;100.00;99672.37;4279102;82;44437;-87
2021/03/09 08:04:56;;;;;;;33.58;14.28;;;;;;;-2.03;100.00;99668.56;4267510;83;44412;-85
2021/03/09 08:10:58;;;;;;;31.63;12.57;;;;;;;-1.66;100.00;99672.41;4300672;83;28557;-86
2021/03/09 08:17:06;;;;;;;28.20;11.43;;;;;;;-1.42;100.00;99658.80;4299979;83;43412;-85
2021/03/09 08:23:46;;;;;;;35.65;14.30;;;;;;;-1.26;100.00;99660.88;4268791;83;44429;-85
2021/03/09 08:29:48;;;;;;;46.85;19.52;;;;;;;-1.00;100.00;99656.84;4281419;83;28619;-86
2021/03/09 08:35:51;;;;;;;49.23;20.72;;;;;;;-0.83;100.00;99663.72;4292204;83;44126;-86
2021/03/09 08:41:56;;;;;;;39.53;17.27;;;;;;;-0.67;100.00;99646.80;4299739;82;44429;-86
2021/03/09 08:47:58;;;;;;;46.80;17.70;;;;;;;-0.49;100.00;99632.83;4287946;82;43772;-86
2021/03/09 08:54:01;;;;;;;35.15;14.63;;;;;;;-0.32;100.00;99636.52;4302703;83;44086;-87
2021/03/09 09:06:51;;;;;;;29.12;12.03;;;;;;;-0.06;100.00;99635.34;3822783;91;43446;-85
2021/03/09 09:13:02;;;;;;;33.90;16.55;;;;;;;0.12;97.91;99621.34;4426256;79;273405;-88
2021/03/09 09:19:05;;;;;;;25.88;10.90;;;;;;;0.47;96.77;99623.70;4395832;80;42862;-82
2021/03/09 09:25:11;;;;;;;21.02;9.83;;;;;;;0.62;94.30;99618.67;4391640;80;43917;-79
2021/03/09 09:31:19;;;;;;;18.70;8.60;;;;;;;0.64;85.93;99622.02;4419787;80;43954;-82
2021/03/09 09:37:22;;;;;;;21.20;7.92;;;;;;;0.41;78.20;99623.78;4377165;80;43921;-82
2021/03/09 09:43:31;;;;;;;15.25;6.72;;;;;;;0.77;76.90;99626.09;4421101;80;43974;-82
2021/03/09 09:49:35;;;;;;;16.27;7.58;;;;;;;0.86;70.80;99623.01;4395224;80;43980;-80
2021/03/09 09:55:38;;;;;;;17.98;7.10;;;;;;;1.02;72.19;99615.68;4406847;80;43930;-81
2021/03/09 10:01:44;;;;;;;17.00;7.08;;;;;;;1.25;71.84;99616.85;4382668;80;44002;-81
2021/03/09 10:07:46;;;;;;;16.25;6.12;;;;;;;1.40;66.85;99608.31;4391022;80;43905;-79
2021/03/09 10:13:48;;;;;;;14.28;6.40;;;;;;;1.50;65.05;99602.89;4431864;80;43920;-81
2021/03/09 10:19:52;;;;;;;10.85;5.08;;;;;;;1.73;67.10;99601.84;4401599;80;43290;-81
2021/03/09 10:26:03;;;;;;;9.75;4.33;;;;;;;1.88;60.42;99595.95;4429259;78;43266;-81
2021/03/09 10:32:16;;;;;;;15.35;6.33;;;;;;;2.07;62.49;99589.02;4278374;82;28580;-81
2021/03/09 10:38:23;;;;;;;13.05;5.95;;;;;;;2.08;58.20;99590.70;4289530;82;43964;-80
2021/03/09 10:44:35;;;;;;;18.02;5.70;;;;;;;2.62;63.25;99583.28;4290836;82;43948;-81
2021/03/09 10:50:44;;;;;;;9.48;4.70;;;;;;;2.70;55.16;99579.80;4295268;82;28558;-81
2021/03/09 10:56:46;;;;;;;9.53;4.70;;;;;;;2.74;55.71;99577.16;4290705;82;28685;-79
2021/03/09 11:02:49;;;;;;;12.82;5.42;;;;;;;3.04;52.65;99572.14;4287995;82;28612;-81
2021/03/09 11:08:51;;;;;;;11.20;4.85;;;;;;;3.04;52.95;99572.96;4299415;81;28566;-80
2021/03/09 11:14:54;;;;;;;10.08;4.70;;;;;;;3.47;53.29;99562.55;4332773;81;28595;-81
2021/03/09 11:20:56;;;;;;;12.47;5.45;;;;;;;3.52;48.82;99557.56;4337496;81;28613;-80
2021/03/09 11:27:01;;;;;;;11.65;5.28;;;;;;;3.22;48.13;99555.99;4326791;81;28610;-86
2021/03/09 11:33:04;;;;;;;10.77;5.70;;;;;;;3.59;50.40;99547.06;4263538;82;28625;-86
2021/03/09 11:39:06;;;;;;;13.30;5.80;;;;;;;3.41;47.05;99536.67;4270312;83;28594;-82
2021/03/09 11:45:09;;;;;;;15.18;5.92;;;;;;;3.76;52.18;99524.71;4267605;83;28574;-85
2021/03/09 11:51:13;;;;;;;13.15;6.03;;;;;;;3.71;45.69;99516.41;4236165;82;28543;-85
2021/03/09 11:57:15;;;;;;;15.78;6.40;;;;;;;3.66;48.74;99515.28;4246387;82;28602;-86
2021/03/09 12:03:17;;;;;;;12.40;6.28;;;;;;;3.55;50.44;99507.20;4271746;82;28632;-79
2021/03/09 12:09:20;;;;;;;13.65;6.10;;;;;;;3.29;48.51;99507.81;4283098;82;28578;-81
2021/03/09 12:15:22;;;;;;;11.33;5.58;;;;;;;3.06;47.26;99501.07;4282037;82;28561;-83
2021/03/09 12:21:24;;;;;;;12.43;5.95;;;;;;;2.98;46.36;99499.75;4291225;82;28570;-82
2021/03/09 12:27:27;;;;;;;12.45;5.72;;;;;;;3.01;50.84;99491.44;4284701;82;28691;-78
2021/03/09 12:33:30;;;;;;;18.35;8.05;;;;;;;2.82;51.71;99484.20;4279655;82;28634;-80
2021/03/09 12:39:33;;;;;;;16.62;7.42;;;;;;;2.61;54.61;99489.55;4293548;82;28643;-79
2021/03/09 12:45:35;;;;;;;16.85;8.10;;;;;;;2.44;56.58;99490.55;4284214;82;28592;-83
2021/03/09 12:51:38;;;;;;;16.62;7.47;;;;;;;2.36;54.35;99485.57;4285902;82;28621;-79
2021/03/09 12:57:40;;;;;;;17.62;7.22;;;;;;;2.64;54.60;99481.24;4281725;82;28647;-80
2021/03/09 13:03:42;;;;;;;15.18;6.92;;;;;;;2.80;51.81;99466.26;4291973;82;28631;-82
2021/03/09 13:09:45;;;;;;;15.60;7.55;;;;;;;2.91;52.17;99469.06;4290325;82;28627;-81
2021/03/09 13:15:48;;;;;;;15.35;7.20;;;;;;;3.10;50.01;99464.36;4297064;82;28562;-80
2021/03/09 13:21:53;;;;;;;13.83;6.30;;;;;;;2.90;50.25;99468.73;4278236;82;28595;-80
2021/03/09 13:27:56;;;;;;;12.53;6.35;;;;;;;2.91;51.29;99461.91;4292260;82;28573;-82
2021/03/09 13:33:58;;;;;;;14.33;6.90;;;;;;;2.89;51.07;99453.81;4293682;82;28659;-81
2021/03/09 13:40:00;;;;;;;13.62;6.83;;;;;;;2.84;53.14;99462.77;4281465;82;28607;-80
2021/03/09 13:46:05;;;;;;;14.83;7.20;;;;;;;2.57;55.25;99462.99;4292009;82;28546;-82
2021/03/09 13:52:07;;;;;;;14.80;6.37;;;;;;;2.48;53.91;99459.53;4292750;82;28600;-82
2021/03/09 13:58:11;;;;;;;12.63;6.35;;;;;;;2.62;56.26;99447.41;4287698;82;28616;-80
2021/03/09 14:04:13;;;;;;;16.12;6.87;;;;;;;2.59;55.01;99451.70;4293206;82;28639;-81
2021/03/09 14:10:16;;;;;;;13.45;6.45;;;;;;;2.51;55.27;99443.77;4287004;82;28612;-80
2021/03/09 14:16:18;;;;;;;11.40;5.80;;;;;;;2.65;54.47;99444.40;4284350;82;28585;-80
2021/03/09 14:22:21;;;;;;;11.75;6.08;;;;;;;2.69;55.46;99431.62;4283690;82;28621;-80
2021/03/09 14:28:23;;;;;;;11.57;6.03;;;;;;;2.45;53.94;99435.14;4287247;82;28568;-82
2021/03/09 14:34:25;;;;;;;12.65;6.22;;;;;;;2.42;55.19;99433.65;4296490;82;28660;-81
2021/03/09 14:40:30;;;;;;;10.38;4.90;;;;;;;2.48;56.87;99430.33;4285278;82;28596;-80
2021/03/09 14:46:32;;;;;;;13.05;7.05;;;;;;;2.48;56.66;99425.51;4290396;82;28656;-85
2021/03/09 14:52:37;;;;;;;13.03;6.08;;;;;;;2.16;55.12;99421.42;4289458;82;28581;-87
2021/03/09 14:58:40;;;;;;;;;;;;;;;2.05;58.82;99421.23;4300550;82;28546;-84
2021/03/09 15:04:42;;;;;;;11.88;5.78;;;;;;;2.13;56.75;99416.94;4265400;82;20643;-87
2021/03/09 15:10:48;;;;;;;13.72;6.25;;;;;;;1.85;56.93;99417.27;4280781;82;28580;-88
2021/03/09 15:16:50;;;;;;;16.00;6.62;;;;;;;1.65;56.08;99400.34;4272264;82;43926;-86
2021/03/09 15:22:53;;;;;;;13.58;6.12;;;;;;;1.58;58.01;99394.88;4272130;82;28591;-88
2021/03/09 15:28:55;;;;;;;12.68;5.90;;;;;;;1.59;58.06;99399.17;4296852;82;28598;-78
2021/03/09 15:34:57;;;;;;;18.67;7.42;;;;;;;1.47;57.62;99396.03;4287365;82;28564;-79
2021/03/09 15:40:59;;;;;;;12.88;7.10;;;;;;;1.30;57.20;99396.97;4280308;82;28556;-79
2021/03/09 15:47:01;;;;;;;13.78;6.37;;;;;;;1.16;59.73;99397.09;4285065;82;28580;-80
2021/03/09 15:53:03;;;;;;;13.85;5.80;;;;;;;1.05;59.39;99393.75;4280630;82;43914;-80
2021/03/09 15:59:05;;;;;;;16.15;6.67;;;;;;;1.11;60.43;99389.16;4286669;82;43989;-82
2021/03/09 16:05:09;;;;;;;12.10;5.60;;;;;;;0.90;59.91;99394.86;4290319;82;43250;-83
2021/03/09 16:11:11;;;;;;;13.10;5.20;;;;;;;0.88;60.79;99387.58;4295260;81;43266;-83
2021/03/09 16:17:13;;;;;;;12.70;5.37;;;;;;;0.77;61.08;99390.00;4314638;81;43285;-82
2021/03/09 16:23:15;;;;;;;11.20;5.10;;;;;;;0.66;62.72;99389.80;4296331;81;43331;-83
2021/03/09 16:29:20;;;;;;;10.68;5.08;;;;;;;0.48;63.86;99393.00;4297026;81;43210;-81
2021/03/09 16:35:23;;;;;;;12.05;4.42;;;;;;;0.32;64.81;99393.73;4311632;81;43250;-82
2021/03/09 16:41:25;;;;;;;11.08;3.87;;;;;;;0.22;66.49;99402.59;4298871;81;43266;-82
2021/03/09 16:47:27;;;;;;;9.60;4.30;;;;;;;0.10;66.60;99405.97;4303115;81;43306;-81
2021/03/09 16:53:30;;;;;;;12.23;4.67;;;;;;;-0.04;67.67;99414.47;4296518;81;43288;-82
2021/03/09 16:59:32;;;;;;;11.85;5.03;;;;;;;-0.08;68.31;99417.91;4393254;80;43271;-79
2021/03/09 17:05:34;;;;;;;12.28;5.20;;;;;;;-0.24;69.77;99414.63;4384594;80;43215;-88
2021/03/09 17:11:37;;;;;;;10.45;5.40;;;;;;;-0.29;71.16;99428.30;4398572;80;43278;-88
2021/03/09 17:17:40;;;;;;;16.35;5.53;;;;;;;-0.29;72.19;99430.94;4377836;80;43945;-82
2021/03/09 17:23:49;;;;;;;10.60;4.90;;;;;;;-0.39;73.55;99435.47;4354589;80;43267;-82
2021/03/09 17:29:52;;;;;;;13.38;5.85;;;;;;;-0.41;74.59;99442.71;4388489;80;43251;-81
2021/03/09 17:35:53;;;;;;;13.80;6.03;;;;;;;-0.43;74.22;99440.72;4406120;80;43949;-82
2021/03/09 17:41:56;;;;;;;14.58;6.45;;;;;;;-0.46;75.06;99441.03;4406443;80;43967;-81
2021/03/09 17:47:59;;;;;;;15.83;7.15;;;;;;;-0.52;74.87;99447.73;4388571;80;43937;-81
2021/03/09 17:54:05;;;;;;;15.08;6.60;;;;;;;-0.58;75.31;99450.96;4395010;80;28643;-82
2021/03/09 18:00:09;;;;;;;18.35;8.08;;;;;;;-0.65;75.92;99459.97;4395336;80;43929;-80
2021/03/09 18:06:19;;;;;;;18.75;8.30;;;;;;;-0.72;76.25;99457.57;4392423;80;43957;-82
2021/03/09 18:12:21;;;;;;;21.52;8.38;;;;;;;-0.79;75.86;99459.97;4416564;80;43966;-81
2021/03/09 18:18:23;;;;;;;19.60;9.65;;;;;;;-0.86;77.09;99460.21;4440280;80;44161;-84
2021/03/09 18:24:25;;;;;;;23.05;10.05;;;;;;;-0.94;78.18;99457.46;4423994;80;43694;-83
2021/03/09 18:30:28;;;;;;;31.55;11.85;;;;;;;-0.97;78.36;99464.36;4425990;80;43390;-82
2021/03/09 18:36:32;;;;;;;26.10;10.95;;;;;;;-1.07;80.52;99462.59;4440715;80;42789;-83
2021/03/09 18:42:36;;;;;;;30.45;11.55;;;;;;;-1.06;82.18;99470.03;4423148;80;43381;-82
2021/03/09 18:48:38;;;;;;;27.77;11.08;;;;;;;-1.10;83.54;99469.96;4425954;80;43432;-81
2021/03/09 18:54:41;;;;;;;27.98;11.88;;;;;;;-1.15;85.53;99468.59;4427897;80;43401;-82
2021/03/09 19:00:43;;;;;;;30.05;13.22;;;;;;;-1.11;84.82;99458.59;4430705;80;43406;-85
2021/03/09 19:06:45;;;;;;;26.87;12.30;;;;;;;-1.19;87.76;99465.07;4429151;80;43429;-82
2021/03/09 19:12:47;;;;;;;34.23;14.10;;;;;;;-1.24;89.99;99475.24;4423123;79;44294;-82
2021/03/09 19:18:50;;;;;;;32.45;13.60;;;;;;;-1.35;91.86;99474.44;4417959;80;44086;-81
2021/03/09 19:24:52;;;;;;;31.15;13.32;;;;;;;-1.36;93.21;99477.21;4429578;79;44119;-80
2021/03/09 19:30:54;;;;;;;31.45;13.43;;;;;;;-1.44;94.83;99487.16;4418330;80;44155;-82
2021/03/09 19:36:56;;;;;;;29.27;13.05;;;;;;;-1.44;93.67;99485.84;4421958;80;43421;-83
2021/03/09 19:42:58;;;;;;;30.12;13.30;;;;;;;-1.47;94.49;99486.95;4417808;80;43445;-82
2021/03/09 19:49:03;;;;;;;28.98;13.00;;;;;;;-1.51;95.82;99495.29;4418920;79;43415;-81
2021/03/09 19:55:06;;;;;;;31.33;12.82;;;;;;;-1.49;94.22;99491.55;4414932;79;43408;-82
2021/03/09 20:01:08;;;;;;;30.00;12.50;;;;;;;-1.48;95.92;99487.08;4415350;79;43434;-79
2021/03/09 20:07:11;;;;;;;28.00;13.03;;;;;;;-1.59;96.57;99490.72;4427711;79;43412;-83
2021/03/09 20:13:15;;;;;;;32.70;14.90;;;;;;;-1.61;98.04;99490.86;4438027;80;28578;-82
2021/03/09 20:19:22;;;;;;;33.85;15.28;;;;;;;-1.71;100.00;99497.47;4428279;80;44102;-82
2021/03/09 20:25:22;;;;;;;38.48;16.55;;;;;;;-1.62;100.00;99493.16;4431523;80;44445;-78
2021/03/09 20:31:24;;;;;;;44.10;16.17;;;;;;;-1.69;100.00;99495.99;4286408;82;44462;-79
2021/03/09 20:37:27;;;;;;;36.53;16.37;;;;;;;-1.62;100.00;99494.47;4261372;81;44429;-76
2021/03/09 20:43:29;;;;;;;46.33;17.82;;;;;;;-1.64;100.00;99498.21;4275726;82;43781;-78
2021/03/09 20:49:32;;;;;;;39.00;17.00;;;;;;;-1.70;100.00;99495.18;4278575;82;44502;-81
2021/03/09 20:55:34;;;;;;;40.78;15.72;;;;;;;-1.59;100.00;99492.86;4303189;83;44444;-82
2021/03/09 21:01:36;;;;;;;44.83;17.48;;;;;;;-1.60;100.00;99485.92;4290182;81;43566;-79
2021/03/09 21:07:39;;;;;;;43.45;17.85;;;;;;;-1.61;100.00;99478.17;4283291;82;43253;-81
2021/03/09 21:13:42;;;;;;;40.05;17.40;;;;;;;-1.49;100.00;99474.87;4239517;83;44457;-81
2021/03/09 21:19:44;;;;;;;43.85;19.50;;;;;;;-1.61;100.00;99475.03;4268557;82;43732;-80
2021/03/09 21:25:47;;;;;;;42.62;18.50;;;;;;;-1.51;100.00;99472.87;4268599;82;42903;-79
2021/03/09 21:31:50;;;;;;;48.98;19.60;;;;;;;-1.70;100.00;99464.02;4273646;82;43779;-80
2021/03/09 21:37:52;;;;;;;48.42;20.55;;;;;;;-1.78;100.00;99465.20;4282434;82;43774;-80
2021/03/09 21:43:54;;;;;;;48.15;20.35;;;;;;;-1.81;100.00;99459.74;4276430;82;43806;-78
2021/03/09 21:49:56;;;;;;;47.90;20.20;;;;;;;-1.82;100.00;99455.45;4283745;82;43809;-78
2021/03/09 21:55:58;;;;;;;46.63;19.95;;;;;;;-1.85;100.00;99464.93;4328603;81;43843;-77
2021/03/09 22:02:00;;;;;;;56.55;21.33;;;;;;;-1.86;100.00;99463.27;4296346;82;44137;-78
2021/03/09 22:08:03;;;;;;;48.90;20.48;;;;;;;-2.04;100.00;99469.23;4289580;82;43764;-78
2021/03/09 22:14:05;;;;;;;45.48;18.75;;;;;;;-2.10;100.00;99462.72;4292035;82;43755;-79
2021/03/09 22:20:08;;;;;;;45.58;18.75;;;;;;;-2.19;100.00;99458.77;4297404;82;43758;-77
2021/03/09 22:26:11;;;;;;;44.40;19.30;;;;;;;-2.19;100.00;99453.50;4292229;82;43770;-78
2021/03/09 22:32:15;;;;;;;46.42;19.70;;;;;;;-2.36;100.00;99450.57;4299683;82;43822;-80
2021/03/09 22:38:20;;;;;;;50.73;21.87;;;;;;;-2.50;100.00;99447.84;4299712;82;44461;-79
2021/03/09 22:44:22;;;;;;;50.12;20.97;;;;;;;-2.59;100.00;99436.34;4284941;82;44500;-79
2021/03/09 22:50:24;;;;;;;51.88;20.30;;;;;;;-2.59;100.00;99438.97;4300717;82;44010;-79
2021/03/09 22:56:29;;;;;;;50.05;21.52;;;;;;;-2.67;100.00;99443.61;4298703;82;28667;-80
2021/03/09 23:02:31;;;;;;;47.08;21.30;;;;;;;-2.77;100.00;99444.54;4294226;82;43739;-77
2021/03/09 23:08:33;;;;;;;51.45;20.52;;;;;;;-2.78;100.00;99440.25;4303318;82;43796;-77
2021/03/09 23:14:36;;;;;;;45.12;19.67;;;;;;;-2.92;100.00;99435.72;4275878;82;43759;-77
2021/03/09 23:20:41;;;;;;;52.53;21.00;;;;;;;-2.99;100.00;99433.27;4252330;82;44095;-78
2021/03/09 23:26:43;;;;;;;46.45;19.40;;;;;;;-3.12;100.00;99429.07;4249160;82;43811;-78
2021/03/09 23:32:45;;;;;;;50.35;21.55;;;;;;;-3.15;100.00;99428.03;4239627;82;44547;-77
2021/03/09 23:38:48;;;;;;;51.85;21.30;;;;;;;-3.26;100.00;99423.69;4240441;82;43906;-80
2021/03/09 23:44:50;;;;;;;45.17;20.15;;;;;;;-3.31;100.00;99427.67;4241183;82;43792;-80
2021/03/09 23:50:52;;;;;;;48.65;20.55;;;;;;;-3.40;100.00;99427.99;4232133;82;44091;-79
2021/03/09 23:56:54;;;;;;;55.03;22.45;;;;;;;-3.41;100.00;99425.83;4240156;82;44132;-78
